createdAt,value
2023-02-26T00:00:25.320Z,53.64
2023-02-26T00:01:25.314Z,56.78
2023-02-26T00:02:25.352Z,51.05
2023-02-26T00:03:25.351Z,49.83
2023-02-26T00:04:25.290Z,57.42
2023-02-26T00:05:25.294Z,53.73
2023-02-26T00:06:25.732Z,53.59
2023-02-26T00:07:25.290Z,55.30
2023-02-26T00:08:25.263Z,48.15
2023-02-26T00:09:25.270Z,48.30
2023-02-26T00:10:25.252Z,51.59
2023-02-26T00:11:25.263Z,54.45
2023-02-26T00:12:25.260Z,46.89
2023-02-26T00:13:25.234Z,52.19
2023-02-26T00:14:25.223Z,48.01
2023-02-26T00:15:25.219Z,42.87
2023-02-26T00:16:25.257Z,45.84
2023-02-26T00:17:25.224Z,50.17
2023-02-26T00:18:25.201Z,45.51
2023-02-26T00:19:25.186Z,57.06
2023-02-26T00:20:25.183Z,48.73
2023-02-26T00:21:25.165Z,55.29
2023-02-26T00:22:25.186Z,57.49
2023-02-26T00:23:25.162Z,43.75
2023-02-26T00:24:25.143Z,64.43
2023-02-26T00:25:25.132Z,56.36
2023-02-26T00:26:25.181Z,53.53
2023-02-26T00:27:26.143Z,52.59
2023-02-26T00:28:25.114Z,49.13
2023-02-26T00:29:25.104Z,52.89
2023-02-26T00:30:25.101Z,41.91
2023-02-26T00:31:25.373Z,42.65
2023-02-26T00:32:25.130Z,47.77
2023-02-26T00:33:25.078Z,43.39
2023-02-26T00:34:25.068Z,52.67
2023-02-26T00:35:25.062Z,53.00
2023-02-26T00:36:25.639Z,55.89
2023-02-26T00:37:25.072Z,61.95
2023-02-26T00:38:25.053Z,56.90
2023-02-26T00:39:25.035Z,58.98
2023-02-26T00:40:25.013Z,51.03
2023-02-26T00:41:26.071Z,50.45
2023-02-26T00:42:25.030Z,54.06
2023-02-26T00:43:24.999Z,52.02
2023-02-26T00:44:25.002Z,53.81
2023-02-26T00:45:24.983Z,49.04
2023-02-26T00:46:25.365Z,47.96
2023-02-26T00:47:24.997Z,51.67
2023-02-26T00:48:24.966Z,56.20
2023-02-26T00:49:24.956Z,50.91
2023-02-26T00:50:24.968Z,46.91
2023-02-26T00:51:24.947Z,58.90
2023-02-26T00:52:24.961Z,56.33
2023-02-26T00:53:24.964Z,51.14
2023-02-26T00:54:24.925Z,56.85
2023-02-26T00:55:24.924Z,59.13
2023-02-26T00:56:25.245Z,50.39
2023-02-26T00:57:24.931Z,55.44
2023-02-26T00:58:24.893Z,53.88
2023-02-26T00:59:24.883Z,56.41
2023-02-26T01:00:24.880Z,49.53
2023-02-26T01:01:24.905Z,42.36
2023-02-26T01:02:24.889Z,49.44
2023-02-26T01:03:24.860Z,41.94
2023-02-26T01:04:24.844Z,46.39
2023-02-26T01:05:24.833Z,48.78
2023-02-26T01:06:25.056Z,55.60
2023-02-26T01:07:24.844Z,56.68
2023-02-26T01:08:25.812Z,52.43
2023-02-26T01:09:24.805Z,49.74
2023-02-26T01:10:24.796Z,63.56
2023-02-26T01:11:24.792Z,53.64
2023-02-26T01:12:24.812Z,48.92
2023-02-26T01:13:24.774Z,55.58
2023-02-26T01:14:24.773Z,52.47
2023-02-26T01:15:24.757Z,43.90
2023-02-26T01:16:25.292Z,56.47
2023-02-26T01:17:24.774Z,54.38
2023-02-26T01:18:24.739Z,45.03
2023-02-26T01:19:24.730Z,52.34
2023-02-26T01:20:24.727Z,51.83
2023-02-26T01:21:24.718Z,43.61
2023-02-26T01:22:24.743Z,41.70
2023-02-26T01:23:24.708Z,51.92
2023-02-26T01:24:24.698Z,55.32
2023-02-26T01:25:24.692Z,40.90
2023-02-26T01:26:24.948Z,41.30
2023-02-26T01:27:24.676Z,55.86
2023-02-26T01:28:24.696Z,50.49
2023-02-26T01:29:24.652Z,44.51
2023-02-26T01:30:25.660Z,41.96
2023-02-26T01:31:24.739Z,53.78
2023-02-26T01:32:24.743Z,61.54
2023-02-26T01:33:24.654Z,50.31
2023-02-26T01:34:24.635Z,46.47
2023-02-26T01:35:24.616Z,58.82
2023-02-26T01:36:25.072Z,48.07
2023-02-26T01:37:24.614Z,52.91
2023-02-26T01:38:24.647Z,50.87
2023-02-26T01:39:24.599Z,54.34
2023-02-26T01:40:24.590Z,42.67
2023-02-26T01:41:24.588Z,53.34
2023-02-26T01:42:24.575Z,46.02
2023-02-26T01:43:24.589Z,62.43
2023-02-26T01:44:24.556Z,54.49
2023-02-26T01:45:24.551Z,49.47
2023-02-26T01:46:24.547Z,57.63
2023-02-26T01:47:24.536Z,57.35
2023-02-26T01:48:24.557Z,48.85
2023-02-26T01:49:24.524Z,43.25
2023-02-26T01:50:24.515Z,48.17
2023-02-26T01:51:24.518Z,49.62
2023-02-26T01:52:24.501Z,45.02
2023-02-26T01:53:24.536Z,44.09
2023-02-26T01:54:24.488Z,49.07
2023-02-26T01:55:24.486Z,53.84
2023-02-26T01:56:24.712Z,43.67
2023-02-26T01:57:24.464Z,47.28
2023-02-26T01:58:24.502Z,43.40
2023-02-26T01:59:24.459Z,54.90
2023-02-26T02:00:24.450Z,61.02
2023-02-26T02:01:24.436Z,51.16
2023-02-26T02:02:24.572Z,41.39
2023-02-26T02:03:24.556Z,57.29
2023-02-26T02:04:24.434Z,46.60
2023-02-26T02:05:24.414Z,54.14
2023-02-26T02:06:24.835Z,49.17
2023-02-26T02:07:24.437Z,48.10
2023-02-26T02:08:24.407Z,48.62
2023-02-26T02:09:24.383Z,40.69
2023-02-26T02:10:24.376Z,39.88
2023-02-26T02:11:24.367Z,41.50
2023-02-26T02:12:24.384Z,53.07
2023-02-26T02:13:24.352Z,51.74
2023-02-26T02:14:24.344Z,61.84
2023-02-26T02:15:24.328Z,52.23
2023-02-26T02:16:24.765Z,49.49
2023-02-26T02:17:24.343Z,47.57
2023-02-26T02:18:24.313Z,53.66
2023-02-26T02:19:24.296Z,56.02
2023-02-26T02:20:24.293Z,64.02
2023-02-26T02:21:24.283Z,52.00
2023-02-26T02:22:24.308Z,51.11
2023-02-26T02:23:24.272Z,45.71
2023-02-26T02:24:24.259Z,50.68
2023-02-26T02:25:24.256Z,49.72
2023-02-26T02:26:24.706Z,43.36
2023-02-26T02:27:24.288Z,50.68
2023-02-26T02:28:24.235Z,43.54
2023-02-26T02:29:24.230Z,48.89
2023-02-26T02:30:24.218Z,57.55
2023-02-26T02:31:24.319Z,60.46
2023-02-26T02:32:24.292Z,52.54
2023-02-26T02:33:24.221Z,43.42
2023-02-26T02:34:24.192Z,51.64
2023-02-26T02:35:24.204Z,58.85
2023-02-26T02:36:24.458Z,54.64
2023-02-26T02:37:24.170Z,53.63
2023-02-26T02:38:24.185Z,46.92
2023-02-26T02:39:24.156Z,55.18
2023-02-26T02:40:24.191Z,51.53
2023-02-26T02:41:24.143Z,46.69
2023-02-26T02:42:24.128Z,42.02
2023-02-26T02:43:24.150Z,44.77
2023-02-26T02:44:24.116Z,53.77
2023-02-26T02:45:24.329Z,57.82
2023-02-26T02:46:24.721Z,44.55
2023-02-26T02:47:24.095Z,56.14
2023-02-26T02:48:24.113Z,60.35
2023-02-26T02:49:24.082Z,48.49
2023-02-26T02:50:24.070Z,53.02
2023-02-26T02:51:24.072Z,63.18
2023-02-26T02:52:24.119Z,45.12
2023-02-26T02:53:24.077Z,54.00
2023-02-26T02:54:24.047Z,53.73
2023-02-26T02:55:24.034Z,51.31
2023-02-26T02:56:24.620Z,60.57
2023-02-26T02:57:24.025Z,54.00
2023-02-26T02:58:24.039Z,49.15
2023-02-26T02:59:24.007Z,45.23
2023-02-26T03:00:24.019Z,41.45
2023-02-26T03:01:24.096Z,48.53
2023-02-26T03:02:23.997Z,48.40
2023-02-26T03:03:23.981Z,52.11
2023-02-26T03:04:24.000Z,47.88
2023-02-26T03:05:23.966Z,60.86
2023-02-26T03:06:23.952Z,54.73
2023-02-26T03:07:23.949Z,46.20
2023-02-26T03:08:23.940Z,46.41
2023-02-26T03:09:23.963Z,44.68
2023-02-26T03:10:23.931Z,46.73
2023-02-26T03:11:23.922Z,41.09
2023-02-26T03:12:23.919Z,52.47
2023-02-26T03:13:23.918Z,42.82
2023-02-26T03:14:23.918Z,43.39
2023-02-26T03:15:23.890Z,46.04
2023-02-26T03:16:24.268Z,54.69
2023-02-26T03:17:24.874Z,52.47
2023-02-26T03:18:23.900Z,50.13
2023-02-26T03:19:23.905Z,52.68
2023-02-26T03:20:23.856Z,43.87
2023-02-26T03:21:23.851Z,42.26
2023-02-26T03:22:23.842Z,41.86
2023-02-26T03:23:23.836Z,42.29
2023-02-26T03:24:23.860Z,52.13
2023-02-26T03:25:23.825Z,62.11
2023-02-26T03:26:23.830Z,53.95
2023-02-26T03:27:23.804Z,44.83
2023-02-26T03:28:23.801Z,49.71
2023-02-26T03:29:23.830Z,45.38
2023-02-26T03:30:23.786Z,46.39
2023-02-26T03:31:23.873Z,50.90
2023-02-26T03:32:23.893Z,43.51
2023-02-26T03:33:23.764Z,56.00
2023-02-26T03:34:23.783Z,60.25
2023-02-26T03:35:23.755Z,48.92
2023-02-26T03:36:24.157Z,42.23
2023-02-26T03:37:23.733Z,42.62
2023-02-26T03:38:23.731Z,61.91
2023-02-26T03:39:23.752Z,56.65
2023-02-26T03:40:23.712Z,50.98
2023-02-26T03:41:23.700Z,51.43
2023-02-26T03:42:23.695Z,60.50
2023-02-26T03:43:23.689Z,47.52
2023-02-26T03:44:23.687Z,47.49
2023-02-26T03:45:23.707Z,49.47
2023-02-26T03:46:24.064Z,62.12
2023-02-26T03:47:23.667Z,51.82
2023-02-26T03:48:23.662Z,52.73
2023-02-26T03:49:23.646Z,48.17
2023-02-26T03:50:23.662Z,41.46
2023-02-26T03:51:23.632Z,51.13
2023-02-26T03:52:23.627Z,57.36
2023-02-26T03:53:23.617Z,48.37
2023-02-26T03:54:23.608Z,48.86
2023-02-26T03:55:23.628Z,50.05
2023-02-26T03:56:24.013Z,43.47
2023-02-26T03:57:23.590Z,45.22
2023-02-26T03:58:23.574Z,48.82
2023-02-26T03:59:24.580Z,54.83
2023-02-26T04:00:23.600Z,58.67
2023-02-26T04:01:23.563Z,54.81
2023-02-26T04:02:23.569Z,51.63
2023-02-26T04:03:23.552Z,44.16
2023-02-26T04:04:23.576Z,43.62
2023-02-26T04:05:23.558Z,43.30
2023-02-26T04:06:23.859Z,43.18
2023-02-26T04:07:23.522Z,48.63
2023-02-26T04:08:23.511Z,45.72
2023-02-26T04:09:23.510Z,43.62
2023-02-26T04:10:23.519Z,45.55
2023-02-26T04:11:23.489Z,54.64
2023-02-26T04:12:23.496Z,62.48
2023-02-26T04:13:23.473Z,46.54
2023-02-26T04:14:23.470Z,55.03
2023-02-26T04:15:23.483Z,56.83
2023-02-26T04:16:23.833Z,47.52
2023-02-26T04:17:23.450Z,42.43
2023-02-26T04:18:23.456Z,46.87
2023-02-26T04:19:23.430Z,52.99
2023-02-26T04:20:23.457Z,62.57
2023-02-26T04:21:23.410Z,52.13
2023-02-26T04:22:23.408Z,55.78
2023-02-26T04:23:23.397Z,49.10
2023-02-26T04:24:23.399Z,42.21
2023-02-26T04:25:23.417Z,46.06
2023-02-26T04:26:23.645Z,55.65
2023-02-26T04:27:23.366Z,47.69
2023-02-26T04:28:23.370Z,52.57
2023-02-26T04:29:23.353Z,52.94
2023-02-26T04:30:23.371Z,55.51
2023-02-26T04:31:23.525Z,48.19
2023-02-26T04:32:23.437Z,48.20
2023-02-26T04:33:23.329Z,52.52
2023-02-26T04:34:23.324Z,41.63
2023-02-26T04:35:23.303Z,47.19
2023-02-26T04:36:23.733Z,48.74
2023-02-26T04:37:23.287Z,41.90
2023-02-26T04:38:23.279Z,52.62
2023-02-26T04:39:23.286Z,55.49
2023-02-26T04:40:23.262Z,54.08
2023-02-26T04:41:23.280Z,51.17
2023-02-26T04:42:23.247Z,60.05
2023-02-26T04:43:23.239Z,55.19
2023-02-26T04:44:23.236Z,53.87
2023-02-26T04:45:23.250Z,53.17
2023-02-26T04:46:23.394Z,53.85
2023-02-26T04:47:23.219Z,55.79
2023-02-26T04:48:23.215Z,65.39
2023-02-26T04:49:23.200Z,44.71
2023-02-26T04:50:23.194Z,48.82
2023-02-26T04:51:23.214Z,42.87
2023-02-26T04:52:23.218Z,43.17
2023-02-26T04:53:23.178Z,51.93
2023-02-26T04:54:23.167Z,52.16
2023-02-26T04:55:23.167Z,53.12
2023-02-26T04:56:23.573Z,56.64
2023-02-26T04:57:23.139Z,49.49
2023-02-26T04:58:23.134Z,53.34
2023-02-26T04:59:23.121Z,56.64
2023-02-26T05:00:23.130Z,46.09
2023-02-26T05:01:23.170Z,51.60
2023-02-26T05:02:23.113Z,54.01
2023-02-26T05:03:23.097Z,56.41
2023-02-26T05:04:23.105Z,50.47
2023-02-26T05:05:23.086Z,51.34
2023-02-26T05:06:23.298Z,53.85
2023-02-26T05:07:23.079Z,54.03
2023-02-26T05:08:23.068Z,53.62
2023-02-26T05:09:23.059Z,43.73
2023-02-26T05:10:23.044Z,47.17
2023-02-26T05:11:23.105Z,50.51
2023-02-26T05:12:23.037Z,49.69
2023-02-26T05:13:23.031Z,47.73
2023-02-26T05:14:23.017Z,48.50
2023-02-26T05:15:23.018Z,48.38
2023-02-26T05:16:23.157Z,53.26
2023-02-26T05:17:23.002Z,55.07
2023-02-26T05:18:23.011Z,49.76
2023-02-26T05:19:22.976Z,54.06
2023-02-26T05:20:22.974Z,46.41
2023-02-26T05:21:25.222Z,43.83
2023-02-26T05:22:22.958Z,54.58
2023-02-26T05:23:22.971Z,57.27
2023-02-26T05:24:22.943Z,49.40
2023-02-26T05:25:22.939Z,55.17
2023-02-26T05:26:23.205Z,58.06
2023-02-26T05:27:22.920Z,45.89
2023-02-26T05:28:22.914Z,52.19
2023-02-26T05:29:22.905Z,59.46
2023-02-26T05:30:22.933Z,49.61
2023-02-26T05:31:23.008Z,47.27
2023-02-26T05:32:22.959Z,48.78
2023-02-26T05:33:22.870Z,47.14
2023-02-26T05:34:22.872Z,57.23
2023-02-26T05:35:22.860Z,60.42
2023-02-26T05:36:23.334Z,66.53
2023-02-26T05:37:22.850Z,49.76
2023-02-26T05:38:22.838Z,53.90
2023-02-26T05:39:22.828Z,51.60
2023-02-26T05:40:22.825Z,53.04
2023-02-26T05:41:22.848Z,55.65
2023-02-26T05:42:22.810Z,52.66
2023-02-26T05:43:22.817Z,59.28
2023-02-26T05:44:22.795Z,59.54
2023-02-26T05:45:22.786Z,56.74
2023-02-26T05:46:23.135Z,52.21
2023-02-26T05:47:22.766Z,44.40
2023-02-26T05:48:22.781Z,51.92
2023-02-26T05:49:22.750Z,56.91
2023-02-26T05:50:22.752Z,56.37
2023-02-26T05:51:22.808Z,52.84
2023-02-26T05:52:22.729Z,49.90
2023-02-26T05:53:22.725Z,44.30
2023-02-26T05:54:22.711Z,44.23
2023-02-26T05:55:22.715Z,52.38
2023-02-26T05:56:23.164Z,54.43
2023-02-26T05:57:22.696Z,47.72
2023-02-26T05:58:22.690Z,43.57
2023-02-26T05:59:22.676Z,50.84
2023-02-26T06:00:22.673Z,54.63
2023-02-26T06:01:22.699Z,54.34
2023-02-26T06:02:22.657Z,50.38
2023-02-26T06:03:22.678Z,51.22
2023-02-26T06:04:22.641Z,54.77
2023-02-26T06:05:22.637Z,51.65
2023-02-26T06:06:22.756Z,52.31
2023-02-26T06:07:22.614Z,61.80
2023-02-26T06:08:22.607Z,46.01
2023-02-26T06:09:22.602Z,56.35
2023-02-26T06:10:22.614Z,52.89
2023-02-26T06:11:22.922Z,57.86
2023-02-26T06:12:22.584Z,58.19
2023-02-26T06:13:22.572Z,50.74
2023-02-26T06:14:22.564Z,52.30
2023-02-26T06:15:22.561Z,49.60
2023-02-26T06:16:22.727Z,47.73
2023-02-26T06:17:22.535Z,53.05
2023-02-26T06:18:22.530Z,58.19
2023-02-26T06:19:22.528Z,65.04
2023-02-26T06:20:22.517Z,50.09
2023-02-26T06:21:22.508Z,49.29
2023-02-26T06:22:22.539Z,52.71
2023-02-26T06:23:22.503Z,60.84
2023-02-26T06:24:22.492Z,58.28
2023-02-26T06:25:22.487Z,51.18
2023-02-26T06:26:23.851Z,52.00
2023-02-26T06:27:23.508Z,55.81
2023-02-26T06:28:22.468Z,50.02
2023-02-26T06:29:22.463Z,59.43
2023-02-26T06:30:22.469Z,55.12
2023-02-26T06:31:22.479Z,57.23
2023-02-26T06:32:22.546Z,54.18
2023-02-26T06:33:22.434Z,51.63
2023-02-26T06:34:22.413Z,51.93
2023-02-26T06:35:22.403Z,52.83
2023-02-26T06:36:22.425Z,51.16
2023-02-26T06:37:22.416Z,52.33
2023-02-26T06:38:22.384Z,48.42
2023-02-26T06:39:22.385Z,57.27
2023-02-26T06:40:22.378Z,53.21
2023-02-26T06:41:22.366Z,55.98
2023-02-26T06:42:22.378Z,51.24
2023-02-26T06:43:22.344Z,57.10
2023-02-26T06:44:22.341Z,57.68
2023-02-26T06:45:22.332Z,52.05
2023-02-26T06:46:22.418Z,47.60
2023-02-26T06:47:22.342Z,64.60
2023-02-26T06:48:22.319Z,56.34
2023-02-26T06:49:22.304Z,50.05
2023-02-26T06:50:22.304Z,52.98
2023-02-26T06:51:22.285Z,52.32
2023-02-26T06:52:22.306Z,58.76
2023-02-26T06:53:22.286Z,49.69
2023-02-26T06:54:22.261Z,49.97
2023-02-26T06:55:22.261Z,50.60
2023-02-26T06:56:24.239Z,54.36
2023-02-26T06:57:23.272Z,60.55
2023-02-26T06:58:22.246Z,53.02
2023-02-26T06:59:22.245Z,49.66
2023-02-26T07:00:22.285Z,49.43
2023-02-26T07:01:22.285Z,52.45
2023-02-26T07:02:22.253Z,51.45
2023-02-26T07:03:22.241Z,54.99
2023-02-26T07:04:22.200Z,58.40
2023-02-26T07:05:22.216Z,55.51
2023-02-26T07:06:27.803Z,59.66
2023-02-26T07:07:24.205Z,56.89
2023-02-26T07:08:22.170Z,59.31
2023-02-26T07:09:22.172Z,58.38
2023-02-26T07:10:22.156Z,52.56
2023-02-26T07:11:22.148Z,53.21
2023-02-26T07:12:22.173Z,59.39
2023-02-26T07:13:22.127Z,56.58
2023-02-26T07:14:22.131Z,50.12
2023-02-26T07:15:22.116Z,53.58
2023-02-26T07:16:22.175Z,54.08
2023-02-26T07:17:22.127Z,59.19
2023-02-26T07:18:22.095Z,58.67
2023-02-26T07:19:22.085Z,52.23
2023-02-26T07:20:22.087Z,53.93
2023-02-26T07:21:22.074Z,50.57
2023-02-26T07:22:22.414Z,58.71
2023-02-26T07:23:23.069Z,54.13
2023-02-26T07:24:22.049Z,51.96
2023-02-26T07:25:22.057Z,56.56
2023-02-26T07:26:22.030Z,55.69
2023-02-26T07:27:22.053Z,51.07
2023-02-26T07:28:22.027Z,56.10
2023-02-26T07:29:22.020Z,53.60
2023-02-26T07:30:22.085Z,55.10
2023-02-26T07:31:22.098Z,56.20
2023-02-26T07:32:22.042Z,56.95
2023-02-26T07:33:21.981Z,56.90
2023-02-26T07:34:21.979Z,64.07
2023-02-26T07:35:21.965Z,58.46
2023-02-26T07:36:21.961Z,48.64
2023-02-26T07:37:21.984Z,49.05
2023-02-26T07:38:21.952Z,57.66
2023-02-26T07:39:21.933Z,59.88
2023-02-26T07:40:21.933Z,57.22
2023-02-26T07:41:21.922Z,55.04
2023-02-26T07:42:21.937Z,59.28
2023-02-26T07:43:21.905Z,49.97
2023-02-26T07:44:21.899Z,60.40
2023-02-26T07:45:21.888Z,58.25
2023-02-26T07:46:21.907Z,57.72
2023-02-26T07:47:21.907Z,49.79
2023-02-26T07:48:21.865Z,59.20
2023-02-26T07:49:21.859Z,60.59
2023-02-26T07:50:21.857Z,59.14
2023-02-26T07:51:21.843Z,51.69
2023-02-26T07:52:21.863Z,59.82
2023-02-26T07:53:21.828Z,60.55
2023-02-26T07:54:21.833Z,61.42
2023-02-26T07:55:21.821Z,57.73
2023-02-26T07:56:21.806Z,61.85
2023-02-26T07:57:21.838Z,58.04
2023-02-26T07:58:21.788Z,51.72
2023-02-26T07:59:21.782Z,61.02
2023-02-26T08:00:21.788Z,55.29
2023-02-26T08:01:21.787Z,59.65
2023-02-26T08:02:21.793Z,50.60
2023-02-26T08:03:21.762Z,58.43
2023-02-26T08:04:21.771Z,61.53
2023-02-26T08:05:22.743Z,63.33
2023-02-26T08:06:21.728Z,59.50
2023-02-26T08:07:21.718Z,58.99
2023-02-26T08:08:21.743Z,59.68
2023-02-26T08:09:21.713Z,60.60
2023-02-26T08:10:21.698Z,58.26
2023-02-26T08:11:21.689Z,59.92
2023-02-26T08:12:21.685Z,60.10
2023-02-26T08:13:21.711Z,59.61
2023-02-26T08:14:21.665Z,58.19
2023-02-26T08:15:21.662Z,58.98
2023-02-26T08:16:21.653Z,55.55
2023-02-26T08:17:21.641Z,59.29
2023-02-26T08:18:21.655Z,53.86
2023-02-26T08:19:21.626Z,59.72
2023-02-26T08:20:21.614Z,57.55
2023-02-26T08:21:21.608Z,59.09
2023-02-26T08:22:21.598Z,55.78
2023-02-26T08:23:21.634Z,59.17
2023-02-26T08:24:21.589Z,59.89
2023-02-26T08:25:21.594Z,59.52
2023-02-26T08:26:21.592Z,62.10
2023-02-26T08:27:21.562Z,63.93
2023-02-26T08:28:21.587Z,64.39
2023-02-26T08:29:21.557Z,57.84
2023-02-26T08:30:21.546Z,60.52
2023-02-26T08:31:21.719Z,59.41
2023-02-26T08:32:21.566Z,64.44
2023-02-26T08:33:22.549Z,61.35
2023-02-26T08:34:21.519Z,65.88
2023-02-26T08:35:21.514Z,59.52
2023-02-26T08:36:21.517Z,60.33
2023-02-26T08:37:21.494Z,61.51
2023-02-26T08:38:21.523Z,62.40
2023-02-26T08:39:21.493Z,57.92
2023-02-26T08:40:21.469Z,56.65
2023-02-26T08:41:21.472Z,62.52
2023-02-26T08:42:21.451Z,63.18
2023-02-26T08:43:21.488Z,62.96
2023-02-26T08:44:21.438Z,63.82
2023-02-26T08:45:21.441Z,63.90
2023-02-26T08:46:21.461Z,61.65
2023-02-26T08:47:28.453Z,62.67
2023-02-26T08:48:23.446Z,62.35
2023-02-26T08:49:21.401Z,54.22
2023-02-26T08:50:21.394Z,63.31
2023-02-26T08:51:21.395Z,61.05
2023-02-26T08:52:21.376Z,60.88
2023-02-26T08:53:21.410Z,57.12
2023-02-26T08:54:21.385Z,59.87
2023-02-26T08:55:21.354Z,61.26
2023-02-26T08:56:21.352Z,58.94
2023-02-26T08:57:21.346Z,57.69
2023-02-26T08:58:21.364Z,58.38
2023-02-26T08:59:21.326Z,59.48
2023-02-26T09:00:21.322Z,60.54
2023-02-26T09:01:21.329Z,57.64
2023-02-26T09:02:21.306Z,62.13
2023-02-26T09:03:21.327Z,59.98
2023-02-26T09:04:21.291Z,63.13
2023-02-26T09:05:21.274Z,61.02
2023-02-26T09:06:21.268Z,56.75
2023-02-26T09:07:21.260Z,60.48
2023-02-26T09:08:21.288Z,61.96
2023-02-26T09:09:21.252Z,59.70
2023-02-26T09:10:21.239Z,58.42
2023-02-26T09:11:21.236Z,61.31
2023-02-26T09:12:21.222Z,58.51
2023-02-26T09:13:21.258Z,58.67
2023-02-26T09:14:21.217Z,63.39
2023-02-26T09:15:21.212Z,58.65
2023-02-26T09:16:21.210Z,61.20
2023-02-26T09:17:21.188Z,58.77
2023-02-26T09:18:21.179Z,63.03
2023-02-26T09:19:21.213Z,55.52
2023-02-26T09:20:21.169Z,57.44
2023-02-26T09:21:21.159Z,57.31
2023-02-26T09:22:21.178Z,61.84
2023-02-26T09:23:21.157Z,62.56
2023-02-26T09:24:21.164Z,60.15
2023-02-26T09:25:21.130Z,59.28
2023-02-26T09:26:21.123Z,61.49
2023-02-26T09:27:21.115Z,53.84
2023-02-26T09:28:21.141Z,58.56
2023-02-26T09:29:21.127Z,61.06
2023-02-26T09:30:21.089Z,58.05
2023-02-26T09:31:21.150Z,60.94
2023-02-26T09:32:21.342Z,61.55
2023-02-26T09:33:21.069Z,59.77
2023-02-26T09:34:21.094Z,55.60
2023-02-26T09:35:21.061Z,58.64
2023-02-26T09:36:21.048Z,60.87
2023-02-26T09:37:21.037Z,64.35
2023-02-26T09:38:21.030Z,57.06
2023-02-26T09:39:21.123Z,60.44
2023-02-26T09:40:21.012Z,58.86
2023-02-26T09:41:21.007Z,61.38
2023-02-26T09:42:20.998Z,58.88
2023-02-26T09:43:21.001Z,60.61
2023-02-26T09:44:21.006Z,60.77
2023-02-26T09:45:20.978Z,60.25
2023-02-26T09:46:20.969Z,59.57
2023-02-26T09:47:20.958Z,59.20
2023-02-26T09:48:20.962Z,60.37
2023-02-26T09:49:20.970Z,55.83
2023-02-26T09:50:20.936Z,58.61
2023-02-26T09:51:20.936Z,59.77
2023-02-26T09:52:20.919Z,59.67
2023-02-26T09:53:20.922Z,60.78
2023-02-26T09:54:20.927Z,58.18
2023-02-26T09:55:20.899Z,62.88
2023-02-26T09:56:20.883Z,60.53
2023-02-26T09:57:20.881Z,58.22
2023-02-26T09:58:20.890Z,60.31
2023-02-26T09:59:20.899Z,59.84
2023-02-26T10:00:20.861Z,59.45
2023-02-26T10:01:20.853Z,58.14
2023-02-26T10:02:20.852Z,63.15
2023-02-26T10:03:20.844Z,65.28
2023-02-26T10:04:21.015Z,62.88
2023-02-26T10:05:20.856Z,60.37
2023-02-26T10:06:20.820Z,61.94
2023-02-26T10:07:20.811Z,62.54
2023-02-26T10:08:20.899Z,61.32
2023-02-26T10:09:20.834Z,54.92
2023-02-26T10:10:20.844Z,59.25
2023-02-26T10:11:20.866Z,59.77
2023-02-26T10:12:20.779Z,64.76
2023-02-26T10:13:20.767Z,61.65
2023-02-26T10:14:20.770Z,61.30
2023-02-26T10:15:20.813Z,65.40
2023-02-26T10:16:20.774Z,62.49
2023-02-26T10:17:20.827Z,62.94
2023-02-26T10:18:20.726Z,61.67
2023-02-26T10:19:20.776Z,59.94
2023-02-26T10:20:20.872Z,62.89
2023-02-26T10:21:20.703Z,62.35
2023-02-26T10:22:20.698Z,60.74
2023-02-26T10:23:20.694Z,59.31
2023-02-26T10:24:20.703Z,60.21
2023-02-26T10:25:20.695Z,57.40
2023-02-26T10:26:20.668Z,58.81
2023-02-26T10:27:20.649Z,60.07
2023-02-26T10:28:20.660Z,59.22
2023-02-26T10:29:23.038Z,57.43
2023-02-26T10:30:21.707Z,59.25
2023-02-26T10:31:20.706Z,61.83
2023-02-26T10:32:20.765Z,59.61
2023-02-26T10:33:20.603Z,61.96
2023-02-26T10:34:20.598Z,57.96
2023-02-26T10:35:20.620Z,61.72
2023-02-26T10:36:20.580Z,60.51
2023-02-26T10:37:20.572Z,63.08
2023-02-26T10:38:20.573Z,62.70
2023-02-26T10:39:20.583Z,63.04
2023-02-26T10:40:20.585Z,62.20
2023-02-26T10:41:20.556Z,63.15
2023-02-26T10:42:20.594Z,56.97
2023-02-26T10:43:20.566Z,58.65
2023-02-26T10:44:20.559Z,61.90
2023-02-26T10:45:20.560Z,63.12
2023-02-26T10:46:20.544Z,60.03
2023-02-26T10:47:20.492Z,64.08
2023-02-26T10:48:20.482Z,63.00
2023-02-26T10:49:20.479Z,63.31
2023-02-26T10:50:20.493Z,61.66
2023-02-26T10:51:20.452Z,63.95
2023-02-26T10:52:20.452Z,62.61
2023-02-26T10:53:20.444Z,65.82
2023-02-26T10:54:20.434Z,64.22
2023-02-26T10:55:20.425Z,65.74
2023-02-26T10:56:20.457Z,65.16
2023-02-26T10:57:20.423Z,63.65
2023-02-26T10:58:20.400Z,64.10
2023-02-26T10:59:20.394Z,62.05
2023-02-26T11:00:20.394Z,61.52
2023-02-26T11:01:20.426Z,62.44
2023-02-26T11:02:20.395Z,69.16
2023-02-26T11:03:20.377Z,61.97
2023-02-26T11:04:20.365Z,61.99
2023-02-26T11:05:20.366Z,58.81
2023-02-26T11:06:20.385Z,59.79
2023-02-26T11:07:20.341Z,63.08
2023-02-26T11:08:20.326Z,62.14
2023-02-26T11:09:20.322Z,62.04
2023-02-26T11:10:20.320Z,64.45
2023-02-26T11:11:20.336Z,63.60
2023-02-26T11:12:20.306Z,63.18
2023-02-26T11:13:20.286Z,59.57
2023-02-26T11:14:21.797Z,62.57
2023-02-26T11:15:21.274Z,61.87
2023-02-26T11:16:20.394Z,62.62
2023-02-26T11:17:20.261Z,66.59
2023-02-26T11:18:20.269Z,63.84
2023-02-26T11:19:21.201Z,60.44
2023-02-26T11:20:20.233Z,60.02
2023-02-26T11:21:20.250Z,59.87
2023-02-26T11:22:20.211Z,62.84
2023-02-26T11:23:20.214Z,57.90
2023-02-26T11:24:20.229Z,64.65
2023-02-26T11:25:20.202Z,61.56
2023-02-26T11:26:20.222Z,62.28
2023-02-26T11:27:20.185Z,63.55
2023-02-26T11:28:20.180Z,63.54
2023-02-26T11:29:20.178Z,63.51
2023-02-26T11:30:20.164Z,60.36
2023-02-26T11:31:20.340Z,63.07
2023-02-26T11:32:20.249Z,60.01
2023-02-26T11:33:20.137Z,60.44
2023-02-26T11:34:20.124Z,60.78
2023-02-26T11:35:20.116Z,61.11
2023-02-26T11:36:20.131Z,62.20
2023-02-26T11:37:20.104Z,64.14
2023-02-26T11:38:20.140Z,59.03
2023-02-26T11:39:20.089Z,61.50
2023-02-26T11:40:20.093Z,61.51
2023-02-26T11:41:20.096Z,61.12
2023-02-26T11:42:20.082Z,63.13
2023-02-26T11:43:20.081Z,62.61
2023-02-26T11:44:20.057Z,60.64
2023-02-26T11:45:20.041Z,61.93
2023-02-26T11:46:21.113Z,61.99
2023-02-26T11:47:20.025Z,61.30
2023-02-26T11:48:20.018Z,64.23
2023-02-26T11:49:20.005Z,61.45
2023-02-26T11:50:20.017Z,61.12
2023-02-26T11:51:20.019Z,65.29
2023-02-26T11:52:19.986Z,60.84
2023-02-26T11:53:19.981Z,61.06
2023-02-26T11:54:19.972Z,66.78
2023-02-26T11:55:19.979Z,59.42
2023-02-26T11:56:19.974Z,62.55
2023-02-26T11:57:19.945Z,58.65
2023-02-26T11:58:19.923Z,61.92
2023-02-26T11:59:20.939Z,57.71
2023-02-26T12:00:19.910Z,61.46
2023-02-26T12:01:19.940Z,64.10
2023-02-26T12:02:19.934Z,60.03
2023-02-26T12:03:19.951Z,64.34
2023-02-26T12:04:19.885Z,61.94
2023-02-26T12:05:19.874Z,62.05
2023-02-26T12:06:19.902Z,59.34
2023-02-26T12:07:19.903Z,62.21
2023-02-26T12:08:19.853Z,62.07
2023-02-26T12:09:19.846Z,60.68
2023-02-26T12:10:19.844Z,63.44
2023-02-26T12:11:19.873Z,57.66
2023-02-26T12:12:19.830Z,62.42
2023-02-26T12:13:19.816Z,63.57
2023-02-26T12:14:19.819Z,63.32
2023-02-26T12:15:19.808Z,58.24
2023-02-26T12:16:19.887Z,57.59
2023-02-26T12:17:19.784Z,58.33
2023-02-26T12:18:19.777Z,63.51
2023-02-26T12:19:19.781Z,63.48
2023-02-26T12:20:19.838Z,59.75
2023-02-26T12:21:19.760Z,64.01
2023-02-26T12:22:19.769Z,61.53
2023-02-26T12:23:19.733Z,59.50
2023-02-26T12:24:19.727Z,60.33
2023-02-26T12:25:19.724Z,60.39
2023-02-26T12:26:19.715Z,60.67
2023-02-26T12:27:19.730Z,63.85
2023-02-26T12:28:19.704Z,61.10
2023-02-26T12:29:19.684Z,66.81
2023-02-26T12:30:19.680Z,61.79
2023-02-26T12:31:19.784Z,60.02
2023-02-26T12:32:20.796Z,61.13
2023-02-26T12:33:19.660Z,65.41
2023-02-26T12:34:19.651Z,60.75
2023-02-26T12:35:19.642Z,62.35
2023-02-26T12:36:19.640Z,63.43
2023-02-26T12:37:19.662Z,63.70
2023-02-26T12:38:19.622Z,59.89
2023-02-26T12:39:19.599Z,59.31
2023-02-26T12:40:20.614Z,61.27
2023-02-26T12:41:19.598Z,61.80
2023-02-26T12:42:19.629Z,60.72
2023-02-26T12:43:19.586Z,59.02
2023-02-26T12:44:19.590Z,62.55
2023-02-26T12:45:19.582Z,60.11
2023-02-26T12:46:19.661Z,62.86
2023-02-26T12:47:19.580Z,63.19
2023-02-26T12:48:19.551Z,64.33
2023-02-26T12:49:19.535Z,61.01
2023-02-26T12:50:19.540Z,62.30
2023-02-26T12:51:19.525Z,62.15
2023-02-26T12:52:19.541Z,64.02